createdAt,value
2023-05-02T00:00:22.880Z,24.46
2023-05-02T00:01:22.868Z,24.46
2023-05-02T00:02:22.933Z,24.43
2023-05-02T00:03:22.920Z,24.45
2023-05-02T00:04:22.950Z,24.43
2023-05-02T00:05:22.869Z,24.45
2023-05-02T00:06:22.924Z,24.43
2023-05-02T00:07:22.895Z,24.45
2023-05-02T00:08:22.867Z,24.46
2023-05-02T00:09:22.882Z,24.45
2023-05-02T00:10:22.886Z,24.43
2023-05-02T00:11:22.896Z,24.46
2023-05-02T00:12:22.905Z,24.46
2023-05-02T00:13:22.941Z,24.45
2023-05-02T00:14:22.933Z,24.45
2023-05-02T00:15:22.907Z,24.46
2023-05-02T00:16:23.268Z,24.42
2023-05-02T00:17:23.045Z,24.42
2023-05-02T00:18:22.935Z,24.42
2023-05-02T00:19:22.962Z,24.43
2023-05-02T00:20:22.994Z,24.45
2023-05-02T00:21:22.994Z,24.45
2023-05-02T00:22:22.989Z,24.40
2023-05-02T00:23:23.058Z,24.43
2023-05-02T00:24:23.061Z,24.43
2023-05-02T00:25:23.045Z,24.42
2023-05-02T00:26:23.039Z,24.45
2023-05-02T00:27:23.062Z,24.43
2023-05-02T00:28:23.080Z,24.43
2023-05-02T00:29:23.073Z,24.43
2023-05-02T00:30:23.098Z,24.43
2023-05-02T00:31:23.138Z,24.40
2023-05-02T00:32:23.307Z,24.45
2023-05-02T00:33:23.134Z,24.45
2023-05-02T00:34:23.141Z,24.42
2023-05-02T00:35:23.155Z,24.42
2023-05-02T00:36:23.166Z,24.45
2023-05-02T00:37:23.175Z,24.43
2023-05-02T00:38:23.203Z,24.43
2023-05-02T00:39:23.245Z,24.45
2023-05-02T00:40:23.193Z,24.42
2023-05-02T00:41:23.239Z,24.42
2023-05-02T00:42:23.240Z,24.43
2023-05-02T00:43:23.278Z,24.42
2023-05-02T00:44:23.293Z,24.40
2023-05-02T00:45:23.334Z,24.45
2023-05-02T00:46:25.382Z,24.42
2023-05-02T00:47:23.345Z,24.42
2023-05-02T00:48:23.375Z,24.42
2023-05-02T00:49:23.412Z,24.42
2023-05-02T00:50:23.414Z,24.42
2023-05-02T00:51:23.409Z,24.43
2023-05-02T00:52:23.422Z,24.45
2023-05-02T00:53:23.431Z,24.40
2023-05-02T00:54:23.455Z,24.42
2023-05-02T00:55:23.472Z,24.40
2023-05-02T00:56:23.501Z,24.40
2023-05-02T00:57:23.533Z,24.43
2023-05-02T00:58:23.587Z,24.42
2023-05-02T00:59:23.590Z,24.42
2023-05-02T01:00:23.592Z,24.42
2023-05-02T01:01:23.711Z,24.40
2023-05-02T01:02:23.845Z,24.40
2023-05-02T01:03:23.769Z,24.42
2023-05-02T01:04:23.757Z,24.40
2023-05-02T01:05:23.710Z,24.42
2023-05-02T01:06:23.750Z,24.40
2023-05-02T01:07:23.793Z,24.40
2023-05-02T01:08:23.833Z,24.42
2023-05-02T01:09:23.836Z,24.42
2023-05-02T01:10:23.855Z,24.40
2023-05-02T01:11:23.922Z,24.42
2023-05-02T01:12:23.900Z,24.42
2023-05-02T01:13:23.962Z,24.40
2023-05-02T01:14:23.981Z,24.40
2023-05-02T01:15:23.993Z,24.40
2023-05-02T01:16:24.135Z,24.40
2023-05-02T01:17:24.068Z,24.40
2023-05-02T01:18:24.067Z,24.40
2023-05-02T01:19:24.096Z,24.40
2023-05-02T01:20:24.163Z,24.39
2023-05-02T01:21:24.151Z,24.40
2023-05-02T01:22:24.180Z,24.40
2023-05-02T01:23:24.231Z,24.40
2023-05-02T01:24:24.240Z,24.42
2023-05-02T01:25:24.286Z,24.40
2023-05-02T01:26:24.297Z,24.40
2023-05-02T01:27:24.309Z,24.40
2023-05-02T01:28:24.332Z,24.39
2023-05-02T01:29:24.363Z,24.39
2023-05-02T01:30:24.433Z,24.39
2023-05-02T01:31:24.470Z,24.40
2023-05-02T01:32:24.522Z,24.40
2023-05-02T01:33:24.523Z,24.40
2023-05-02T01:34:24.552Z,24.40
2023-05-02T01:35:24.553Z,24.40
2023-05-02T01:36:24.591Z,24.39
2023-05-02T01:37:24.610Z,24.38
2023-05-02T01:38:24.631Z,24.42
2023-05-02T01:39:24.635Z,24.39
2023-05-02T01:40:24.666Z,24.39
2023-05-02T01:41:24.684Z,24.39
2023-05-02T01:42:24.688Z,24.40
2023-05-02T01:43:24.685Z,24.40
2023-05-02T01:44:24.702Z,24.39
2023-05-02T01:45:24.708Z,24.38
2023-05-02T01:46:24.763Z,24.38
2023-05-02T01:47:24.762Z,24.40
2023-05-02T01:48:24.768Z,24.39
2023-05-02T01:49:24.787Z,24.38
2023-05-02T01:50:24.809Z,24.38
2023-05-02T01:51:24.798Z,24.38
2023-05-02T01:52:24.846Z,24.39
2023-05-02T01:53:24.856Z,24.39
2023-05-02T01:54:24.864Z,24.39
2023-05-02T01:55:24.854Z,24.42
2023-05-02T01:56:24.870Z,24.39
2023-05-02T01:57:24.891Z,24.42
2023-05-02T01:58:24.898Z,24.38
2023-05-02T01:59:24.920Z,24.39
2023-05-02T02:00:24.952Z,24.39
2023-05-02T02:01:25.024Z,24.39
2023-05-02T02:02:25.026Z,24.39
2023-05-02T02:03:25.119Z,24.39
2023-05-02T02:04:25.090Z,24.39
2023-05-02T02:05:25.091Z,24.39
2023-05-02T02:06:25.172Z,24.38
2023-05-02T02:07:25.173Z,24.36
2023-05-02T02:08:25.198Z,24.40
2023-05-02T02:09:25.207Z,24.38
2023-05-02T02:10:25.273Z,24.38
2023-05-02T02:11:25.293Z,24.36
2023-05-02T02:12:25.337Z,24.39
2023-05-02T02:13:25.348Z,24.38
2023-05-02T02:14:25.391Z,24.36
2023-05-02T02:15:25.395Z,24.38
2023-05-02T02:16:25.541Z,24.38
2023-05-02T02:17:25.505Z,24.36
2023-05-02T02:18:25.481Z,24.39
2023-05-02T02:19:25.530Z,24.39
2023-05-02T02:20:25.524Z,24.38
2023-05-02T02:21:25.545Z,24.39
2023-05-02T02:22:25.560Z,24.38
2023-05-02T02:23:25.604Z,24.39
2023-05-02T02:24:25.631Z,24.38
2023-05-02T02:25:25.680Z,24.38
2023-05-02T02:26:27.342Z,24.36
2023-05-02T02:27:25.859Z,24.38
2023-05-02T02:28:25.786Z,24.35
2023-05-02T02:29:25.815Z,24.35
2023-05-02T02:30:25.852Z,24.36
2023-05-02T02:31:26.013Z,24.38
2023-05-02T02:32:25.969Z,24.36
2023-05-02T02:33:25.965Z,24.38
2023-05-02T02:34:25.980Z,24.39
2023-05-02T02:35:25.966Z,24.36
2023-05-02T02:36:26.004Z,24.35
2023-05-02T02:37:26.013Z,24.36
2023-05-02T02:38:26.017Z,24.36
2023-05-02T02:39:26.051Z,24.38
2023-05-02T02:40:26.047Z,24.38
2023-05-02T02:41:26.057Z,24.36
2023-05-02T02:42:26.084Z,24.35
2023-05-02T02:43:26.109Z,24.36
2023-05-02T02:44:26.135Z,24.36
2023-05-02T02:45:26.175Z,24.36
2023-05-02T02:46:26.222Z,24.36
2023-05-02T02:47:26.224Z,24.36
2023-05-02T02:48:26.275Z,24.35
2023-05-02T02:49:26.285Z,24.36
2023-05-02T02:50:26.349Z,24.36
2023-05-02T02:51:26.359Z,24.34
2023-05-02T02:52:26.393Z,24.36
2023-05-02T02:53:26.523Z,24.34
2023-05-02T02:54:27.544Z,24.36
2023-05-02T02:55:26.496Z,24.35
2023-05-02T02:56:26.536Z,24.35
2023-05-02T02:57:26.545Z,24.34
2023-05-02T02:58:26.591Z,24.36
2023-05-02T02:59:26.644Z,24.35
2023-05-02T03:00:26.652Z,24.34
2023-05-02T03:01:26.766Z,24.36
2023-05-02T03:02:26.738Z,24.38
2023-05-02T03:03:26.797Z,24.35
2023-05-02T03:04:26.801Z,24.35
2023-05-02T03:05:26.816Z,24.36
2023-05-02T03:06:26.899Z,24.34
2023-05-02T03:07:26.857Z,24.35
2023-05-02T03:08:26.928Z,24.35
2023-05-02T03:09:26.984Z,24.34
2023-05-02T03:10:26.977Z,24.34
2023-05-02T03:11:28.315Z,24.35
2023-05-02T03:12:27.061Z,24.34
2023-05-02T03:13:27.104Z,24.32
2023-05-02T03:14:27.128Z,24.34
2023-05-02T03:15:27.174Z,24.38
2023-05-02T03:16:27.207Z,24.32
2023-05-02T03:17:27.267Z,24.36
2023-05-02T03:18:27.221Z,24.34
2023-05-02T03:19:27.254Z,24.34
2023-05-02T03:20:27.254Z,24.34
2023-05-02T03:21:27.287Z,24.34
2023-05-02T03:22:27.298Z,24.34
2023-05-02T03:23:27.376Z,24.34
2023-05-02T03:24:27.395Z,24.31
2023-05-02T03:25:27.406Z,24.35
2023-05-02T03:26:27.438Z,24.32
2023-05-02T03:27:27.464Z,24.32
2023-05-02T03:28:27.517Z,24.34
2023-05-02T03:29:27.526Z,24.34
2023-05-02T03:30:27.578Z,24.34
2023-05-02T03:31:27.668Z,24.34
2023-05-02T03:32:27.641Z,24.38
2023-05-02T03:33:27.648Z,24.35
2023-05-02T03:34:27.696Z,24.32
2023-05-02T03:35:27.736Z,24.32
2023-05-02T03:36:27.763Z,24.34
2023-05-02T03:37:27.792Z,24.34
2023-05-02T03:38:27.799Z,24.31
2023-05-02T03:39:27.832Z,24.34
2023-05-02T03:40:27.878Z,24.31
2023-05-02T03:41:28.020Z,24.32
2023-05-02T03:42:27.938Z,24.34
2023-05-02T03:43:27.987Z,24.34
2023-05-02T03:44:28.012Z,24.32
2023-05-02T03:45:28.033Z,24.32
2023-05-02T03:46:29.896Z,24.32
2023-05-02T03:47:28.143Z,24.31
2023-05-02T03:48:28.152Z,24.32
2023-05-02T03:49:28.190Z,24.31
2023-05-02T03:50:28.225Z,24.32
2023-05-02T03:51:28.222Z,24.34
2023-05-02T03:52:28.280Z,24.31
2023-05-02T03:53:28.288Z,24.32
2023-05-02T03:54:28.335Z,24.31
2023-05-02T03:55:28.389Z,24.32
2023-05-02T03:56:28.407Z,24.32
2023-05-02T03:57:28.441Z,24.31
2023-05-02T03:58:28.490Z,24.31
2023-05-02T03:59:28.514Z,24.31
2023-05-02T04:00:28.545Z,24.32
2023-05-02T04:01:28.611Z,24.32
2023-05-02T04:02:28.697Z,24.32
2023-05-02T04:03:29.812Z,24.31
2023-05-02T04:04:28.699Z,24.31
2023-05-02T04:05:28.724Z,24.31
2023-05-02T04:06:28.783Z,24.32
2023-05-02T04:07:28.797Z,24.29
2023-05-02T04:08:28.831Z,24.29
2023-05-02T04:09:28.858Z,24.31
2023-05-02T04:10:28.897Z,24.32
2023-05-02T04:11:28.893Z,24.31
2023-05-02T04:12:28.908Z,24.32
2023-05-02T04:13:29.059Z,24.31
2023-05-02T04:14:28.985Z,24.29
2023-05-02T04:15:29.045Z,24.32
2023-05-02T04:16:29.092Z,24.29
2023-05-02T04:17:29.158Z,24.32
2023-05-02T04:18:29.117Z,24.32
2023-05-02T04:19:29.154Z,24.32
2023-05-02T04:20:29.197Z,24.32
2023-05-02T04:21:29.227Z,24.32
2023-05-02T04:22:29.257Z,24.32
2023-05-02T04:23:29.278Z,24.32
2023-05-02T04:24:29.320Z,24.32
2023-05-02T04:25:29.389Z,24.34
2023-05-02T04:26:29.381Z,24.35
2023-05-02T04:27:29.410Z,24.32
2023-05-02T04:28:29.435Z,24.31
2023-05-02T04:29:29.567Z,24.32
2023-05-02T04:30:29.495Z,24.32
2023-05-02T04:31:29.598Z,24.32
2023-05-02T04:32:29.631Z,24.32
2023-05-02T04:33:29.602Z,24.32
2023-05-02T04:34:29.618Z,24.32
2023-05-02T04:35:29.638Z,24.32
2023-05-02T04:36:29.668Z,24.32
2023-05-02T04:37:29.731Z,24.31
2023-05-02T04:38:29.748Z,24.32
2023-05-02T04:39:29.770Z,24.31
2023-05-02T04:40:29.796Z,24.32
2023-05-02T04:41:29.826Z,24.31
2023-05-02T04:42:29.878Z,24.32
2023-05-02T04:43:29.846Z,24.34
2023-05-02T04:44:29.879Z,24.31
2023-05-02T04:45:29.915Z,24.31
2023-05-02T04:46:30.005Z,24.32
2023-05-02T04:47:30.016Z,24.31
2023-05-02T04:48:29.961Z,24.31
2023-05-02T04:49:29.993Z,24.31
2023-05-02T04:50:30.024Z,24.32
2023-05-02T04:51:29.995Z,24.31
2023-05-02T04:52:30.065Z,24.32
2023-05-02T04:53:30.057Z,24.31
2023-05-02T04:54:30.363Z,24.32
2023-05-02T04:55:30.077Z,24.34
2023-05-02T04:56:30.101Z,24.34
2023-05-02T04:57:30.159Z,24.34
2023-05-02T04:58:30.158Z,24.34
2023-05-02T04:59:30.145Z,24.31
2023-05-02T05:00:30.212Z,24.34
2023-05-02T05:01:30.301Z,24.34
2023-05-02T05:02:30.319Z,24.34
2023-05-02T05:03:30.331Z,24.32
2023-05-02T05:04:30.274Z,24.32
2023-05-02T05:05:30.372Z,24.31
2023-05-02T05:06:30.364Z,24.34
2023-05-02T05:07:30.315Z,24.32
2023-05-02T05:08:30.353Z,24.32
2023-05-02T05:09:30.413Z,24.31
2023-05-02T05:10:30.421Z,24.32
2023-05-02T05:11:30.453Z,24.31
2023-05-02T05:12:30.861Z,24.32
2023-05-02T05:13:30.545Z,24.32
2023-05-02T05:14:30.550Z,24.32
2023-05-02T05:15:30.589Z,24.34
2023-05-02T05:16:30.672Z,24.32
2023-05-02T05:17:30.725Z,24.31
2023-05-02T05:18:30.693Z,24.32
2023-05-02T05:19:30.721Z,24.34
2023-05-02T05:20:30.746Z,24.32
2023-05-02T05:21:30.908Z,24.35
2023-05-02T05:22:30.853Z,24.32
2023-05-02T05:23:30.880Z,24.34
2023-05-02T05:24:30.946Z,24.32
2023-05-02T05:25:30.976Z,24.32
2023-05-02T05:26:30.951Z,24.34
2023-05-02T05:27:31.373Z,24.34
2023-05-02T05:28:31.069Z,24.35
2023-05-02T05:29:31.370Z,24.34
2023-05-02T05:30:31.091Z,24.32
2023-05-02T05:31:31.165Z,24.31
2023-05-02T05:32:31.231Z,24.32
2023-05-02T05:33:31.268Z,24.28
2023-05-02T05:34:31.449Z,24.34
2023-05-02T05:35:31.358Z,24.31
2023-05-02T05:36:31.367Z,24.29
2023-05-02T05:37:31.366Z,24.31
2023-05-02T05:38:31.334Z,24.35
2023-05-02T05:39:31.436Z,24.35
2023-05-02T05:40:31.496Z,24.38
2023-05-02T05:41:31.478Z,24.40
2023-05-02T05:42:31.432Z,24.43
2023-05-02T05:43:32.443Z,24.35
2023-05-02T05:44:31.506Z,24.35
2023-05-02T05:45:31.509Z,24.32
2023-05-02T05:46:31.722Z,24.34
2023-05-02T05:47:31.723Z,24.40
2023-05-02T05:48:31.659Z,24.38
2023-05-02T05:49:31.941Z,24.36
2023-05-02T05:50:31.708Z,24.42
2023-05-02T05:51:31.684Z,24.46
2023-05-02T05:52:31.686Z,24.54
2023-05-02T05:53:31.648Z,24.60
2023-05-02T05:54:32.372Z,24.63
2023-05-02T05:55:31.700Z,24.68
2023-05-02T05:56:31.764Z,24.72
2023-05-02T05:57:31.863Z,24.76
2023-05-02T05:58:31.824Z,24.78
2023-05-02T05:59:31.892Z,24.83
2023-05-02T06:00:31.939Z,24.85
2023-05-02T06:01:32.926Z,24.91
2023-05-02T06:02:32.070Z,24.93
2023-05-02T06:03:32.103Z,24.93
2023-05-02T06:04:32.099Z,24.99
2023-05-02T06:05:32.157Z,25.02
2023-05-02T06:06:32.161Z,25.03
2023-05-02T06:07:32.152Z,25.06
2023-05-02T06:08:32.180Z,25.09
2023-05-02T06:09:32.208Z,25.13
2023-05-02T06:10:32.252Z,25.16
2023-05-02T06:11:32.913Z,25.13
2023-05-02T06:12:32.334Z,25.16
2023-05-02T06:13:32.522Z,25.19
2023-05-02T06:14:32.474Z,25.23
2023-05-02T06:15:32.536Z,25.23
2023-05-02T06:16:32.701Z,25.27
2023-05-02T06:17:32.729Z,25.30
2023-05-02T06:18:32.834Z,25.31
2023-05-02T06:19:32.821Z,25.30
2023-05-02T06:20:32.825Z,25.34
2023-05-02T06:21:32.899Z,25.36
2023-05-02T06:22:32.968Z,25.36
2023-05-02T06:23:33.033Z,25.38
2023-05-02T06:24:33.270Z,25.41
2023-05-02T06:25:33.080Z,25.40
2023-05-02T06:26:33.153Z,25.44
2023-05-02T06:27:33.758Z,25.44
2023-05-02T06:28:33.369Z,25.47
2023-05-02T06:29:33.403Z,25.51
2023-05-02T06:30:33.319Z,25.51
2023-05-02T06:31:33.485Z,25.51
2023-05-02T06:32:33.502Z,25.53
2023-05-02T06:33:33.500Z,25.55
2023-05-02T06:34:33.539Z,25.58
2023-05-02T06:35:33.598Z,25.61
2023-05-02T06:36:33.664Z,25.63
2023-05-02T06:37:34.060Z,25.63
2023-05-02T06:38:33.795Z,25.64
2023-05-02T06:39:33.876Z,25.60
2023-05-02T06:40:33.866Z,25.55
2023-05-02T06:41:33.946Z,25.57
2023-05-02T06:42:33.950Z,25.55
2023-05-02T06:43:34.034Z,25.58
2023-05-02T06:44:34.059Z,25.61
2023-05-02T06:45:34.130Z,25.61
2023-05-02T06:46:34.218Z,25.64
2023-05-02T06:47:34.264Z,25.67
2023-05-02T06:48:34.252Z,25.64
2023-05-02T06:49:34.293Z,25.70
2023-05-02T06:50:34.359Z,25.71
2023-05-02T06:51:34.375Z,25.71
2023-05-02T06:52:34.464Z,25.74
2023-05-02T06:53:34.495Z,25.70
2023-05-02T06:54:34.494Z,25.77
2023-05-02T06:55:34.491Z,25.78
2023-05-02T06:56:34.539Z,25.78
2023-05-02T06:57:34.566Z,25.80
2023-05-02T06:58:34.606Z,25.84
2023-05-02T06:59:34.592Z,25.85
2023-05-02T07:00:34.658Z,25.84
2023-05-02T07:01:34.742Z,25.85
2023-05-02T07:02:34.767Z,25.84
2023-05-02T07:03:34.753Z,25.88
2023-05-02T07:04:34.797Z,25.89
2023-05-02T07:05:34.809Z,25.91
2023-05-02T07:06:34.835Z,25.91
2023-05-02T07:07:34.905Z,25.94
2023-05-02T07:08:34.870Z,25.95
2023-05-02T07:09:34.888Z,25.95
2023-05-02T07:10:34.996Z,25.97
2023-05-02T07:11:34.947Z,25.95
2023-05-02T07:12:35.114Z,25.97
2023-05-02T07:13:34.994Z,25.95
2023-05-02T07:14:35.038Z,25.99
2023-05-02T07:15:35.091Z,25.99
2023-05-02T07:16:35.297Z,25.99
2023-05-02T07:17:35.172Z,26.01
2023-05-02T07:18:35.885Z,25.99
2023-05-02T07:19:35.164Z,25.99
2023-05-02T07:20:35.130Z,26.02
2023-05-02T07:21:35.173Z,26.05
2023-05-02T07:22:35.247Z,26.05
2023-05-02T07:23:35.179Z,26.04
2023-05-02T07:24:35.242Z,26.04
2023-05-02T07:25:35.226Z,26.05
2023-05-02T07:26:35.227Z,26.07
2023-05-02T07:27:35.248Z,26.09
2023-05-02T07:28:35.257Z,26.09
2023-05-02T07:29:35.323Z,26.07
2023-05-02T07:30:35.288Z,26.12
2023-05-02T07:31:35.313Z,26.09
2023-05-02T07:32:35.425Z,26.09
2023-05-02T07:33:35.364Z,26.11
2023-05-02T07:34:35.500Z,26.09
2023-05-02T07:35:35.377Z,26.09
2023-05-02T07:36:35.405Z,26.08
2023-05-02T07:37:35.409Z,26.09
2023-05-02T07:38:35.394Z,26.07
2023-05-02T07:39:35.430Z,26.11
2023-05-02T07:40:35.375Z,26.09
2023-05-02T07:41:35.402Z,26.12
2023-05-02T07:42:35.393Z,26.14
2023-05-02T07:43:35.363Z,26.15
2023-05-02T07:44:35.422Z,26.09
2023-05-02T07:45:35.375Z,26.15
2023-05-02T07:46:35.417Z,26.14
2023-05-02T07:47:35.426Z,26.17
2023-05-02T07:48:35.449Z,26.17
2023-05-02T07:49:35.461Z,26.17
2023-05-02T07:50:35.430Z,26.17
2023-05-02T07:51:35.453Z,26.19
2023-05-02T07:52:35.465Z,26.21
2023-05-02T07:53:35.488Z,26.19
2023-05-02T07:54:35.563Z,26.22
2023-05-02T07:55:35.940Z,26.24
2023-05-02T07:56:35.483Z,26.25
2023-05-02T07:57:36.079Z,26.25
2023-05-02T07:58:35.481Z,26.22
2023-05-02T07:59:35.503Z,26.24
2023-05-02T08:00:35.467Z,26.22
2023-05-02T08:01:35.485Z,26.22
2023-05-02T08:02:35.581Z,26.21
2023-05-02T08:03:35.727Z,26.21
2023-05-02T08:04:35.574Z,26.19
2023-05-02T08:05:37.460Z,26.18
2023-05-02T08:06:35.682Z,26.18
2023-05-02T08:07:36.636Z,26.19
2023-05-02T08:08:35.556Z,26.19
2023-05-02T08:09:35.529Z,26.18
2023-05-02T08:10:35.543Z,26.17
2023-05-02T08:11:35.539Z,26.19
2023-05-02T08:12:35.577Z,26.14
2023-05-02T08:13:35.539Z,26.05
2023-05-02T08:14:35.568Z,26.04
2023-05-02T08:15:35.932Z,26.02
2023-05-02T08:16:35.668Z,25.99
2023-05-02T08:17:35.669Z,25.98
2023-05-02T08:18:35.630Z,25.97
2023-05-02T08:19:35.661Z,25.98
2023-05-02T08:20:35.936Z,25.97
2023-05-02T08:21:35.670Z,25.97
2023-05-02T08:22:35.743Z,25.97
2023-05-02T08:23:35.720Z,25.98
2023-05-02T08:24:35.846Z,25.99
2023-05-02T08:25:35.828Z,26.04
2023-05-02T08:26:35.811Z,26.05
2023-05-02T08:27:35.858Z,26.04
2023-05-02T08:28:35.853Z,26.05
2023-05-02T08:29:35.916Z,26.04
2023-05-02T08:30:35.887Z,26.02
2023-05-02T08:31:35.987Z,26.01
2023-05-02T08:32:36.489Z,25.99
2023-05-02T08:33:35.944Z,25.97
2023-05-02T08:34:35.957Z,25.95
2023-05-02T08:35:36.039Z,25.94
2023-05-02T08:36:35.978Z,25.92
2023-05-02T08:37:36.092Z,25.89
2023-05-02T08:38:36.049Z,25.87
2023-05-02T08:39:36.094Z,25.85
2023-05-02T08:40:41.552Z,25.83
2023-05-02T08:41:37.062Z,25.77
2023-05-02T08:42:36.473Z,25.75
2023-05-02T08:43:36.050Z,25.68
2023-05-02T08:44:36.074Z,25.70
2023-05-02T08:45:36.037Z,25.70
2023-05-02T08:46:36.162Z,25.73
2023-05-02T08:47:36.074Z,25.77
2023-05-02T08:48:35.999Z,25.81
2023-05-02T08:49:35.993Z,25.84
2023-05-02T08:50:35.998Z,25.91
2023-05-02T08:51:36.678Z,25.92
2023-05-02T08:52:35.986Z,25.95
2023-05-02T08:53:35.987Z,25.97
2023-05-02T08:54:36.007Z,26.01
2023-05-02T08:55:35.977Z,26.04
2023-05-02T08:56:35.945Z,26.05
2023-05-02T08:57:35.937Z,26.09
2023-05-02T08:58:36.308Z,26.15
2023-05-02T08:59:35.933Z,26.12
2023-05-02T09:00:35.932Z,26.17
2023-05-02T09:01:35.991Z,26.17
2023-05-02T09:02:35.979Z,26.21
2023-05-02T09:03:35.923Z,26.24
2023-05-02T09:04:35.996Z,26.25
2023-05-02T09:05:35.986Z,26.29
2023-05-02T09:06:35.911Z,26.31
2023-05-02T09:07:35.877Z,26.34
2023-05-02T09:08:35.882Z,26.35
2023-05-02T09:09:35.854Z,26.34
2023-05-02T09:10:35.831Z,26.36
2023-05-02T09:11:35.835Z,26.36
2023-05-02T09:12:35.852Z,26.38
2023-05-02T09:13:35.920Z,26.36
2023-05-02T09:14:35.842Z,26.38
2023-05-02T09:15:35.906Z,26.39
2023-05-02T09:16:36.005Z,26.38
2023-05-02T09:17:36.080Z,26.42
2023-05-02T09:18:36.073Z,26.40
2023-05-02T09:19:36.140Z,26.40
2023-05-02T09:20:36.201Z,26.38
2023-05-02T09:21:36.164Z,26.35
2023-05-02T09:22:36.167Z,26.34
2023-05-02T09:23:36.213Z,26.31
2023-05-02T09:24:36.177Z,26.29
2023-05-02T09:25:36.180Z,26.28
2023-05-02T09:26:36.184Z,26.27
2023-05-02T09:27:36.187Z,26.25
2023-05-02T09:28:36.218Z,26.28
2023-05-02T09:29:36.580Z,26.29
2023-05-02T09:30:36.289Z,26.29
2023-05-02T09:32:36.290Z,26.27
2023-05-02T09:33:36.424Z,26.34
2023-05-02T09:34:36.293Z,26.29
2023-05-02T09:35:36.292Z,26.31
2023-05-02T09:36:36.291Z,26.32
2023-05-02T09:37:36.317Z,26.31
2023-05-02T09:38:36.482Z,26.28
2023-05-02T09:39:36.371Z,26.22
2023-05-02T09:40:36.323Z,26.14
2023-05-02T09:41:36.347Z,26.07
2023-05-02T09:42:36.409Z,26.01
2023-05-02T09:43:36.445Z,25.94
2023-05-02T09:44:36.451Z,25.88
2023-05-02T09:45:37.036Z,25.85
2023-05-02T09:46:36.624Z,25.84
2023-05-02T09:47:36.775Z,25.81
2023-05-02T09:48:36.672Z,25.77
2023-05-02T09:49:36.699Z,25.73
2023-05-02T09:50:37.557Z,25.68
2023-05-02T09:51:36.802Z,25.68
2023-05-02T09:52:36.906Z,25.64
2023-05-02T09:53:36.981Z,25.64
2023-05-02T09:54:37.066Z,25.61
2023-05-02T09:55:37.028Z,25.57
2023-05-02T09:56:37.116Z,25.57
2023-05-02T09:57:37.140Z,25.57
2023-05-02T09:58:37.268Z,25.57
2023-05-02T09:59:37.292Z,25.58
2023-05-02T10:00:37.290Z,25.63
2023-05-02T10:01:37.423Z,25.58
2023-05-02T10:02:37.870Z,25.61
2023-05-02T10:03:37.464Z,25.60
2023-05-02T10:04:37.581Z,25.60
2023-05-02T10:05:37.554Z,25.63
2023-05-02T10:06:37.615Z,25.63
2023-05-02T10:07:37.633Z,25.63
2023-05-02T10:08:37.624Z,25.67
2023-05-02T10:09:37.650Z,25.68
2023-05-02T10:10:37.952Z,25.67
2023-05-02T10:11:37.755Z,25.70
2023-05-02T10:12:37.802Z,25.70
2023-05-02T10:13:37.838Z,25.70
2023-05-02T10:14:37.875Z,25.71
2023-05-02T10:15:37.961Z,25.71
2023-05-02T10:16:37.950Z,25.73
2023-05-02T10:17:38.148Z,25.74
2023-05-02T10:18:38.471Z,25.75
2023-05-02T10:19:38.116Z,25.75
2023-05-02T10:20:38.239Z,25.77
2023-05-02T10:21:38.176Z,25.75
2023-05-02T10:22:38.203Z,25.77
2023-05-02T10:23:38.220Z,25.73
2023-05-02T10:24:38.261Z,25.70
2023-05-02T10:25:38.344Z,25.70
2023-05-02T10:26:38.444Z,25.63
2023-05-02T10:27:38.438Z,25.58
2023-05-02T10:28:39.558Z,25.50
2023-05-02T10:29:38.550Z,25.43
2023-05-02T10:30:38.567Z,25.41
2023-05-02T10:31:38.676Z,25.47
2023-05-02T10:32:38.694Z,25.44
2023-05-02T10:33:38.700Z,25.48
2023-05-02T10:34:38.718Z,25.55
2023-05-02T10:35:38.822Z,25.55
2023-05-02T10:36:38.842Z,25.60
2023-05-02T10:37:38.863Z,25.61
2023-05-02T10:38:38.922Z,25.65
2023-05-02T10:39:38.967Z,25.68
2023-05-02T10:40:39.078Z,25.71
2023-05-02T10:41:39.015Z,25.75
2023-05-02T10:42:39.217Z,25.77
2023-05-02T10:43:39.148Z,25.80
2023-05-02T10:44:39.090Z,25.81
2023-05-02T10:45:39.152Z,25.87
2023-05-02T10:46:39.180Z,25.89
2023-05-02T10:47:39.146Z,25.89
2023-05-02T10:48:39.133Z,25.89
2023-05-02T10:49:39.127Z,25.94
2023-05-02T10:50:39.359Z,25.94
2023-05-02T10:51:39.191Z,25.98
2023-05-02T10:52:39.125Z,25.98
2023-05-02T10:53:39.161Z,25.99
2023-05-02T10:54:39.210Z,26.04
2023-05-02T10:55:39.224Z,26.05
2023-05-02T10:56:39.141Z,26.05
2023-05-02T10:57:39.137Z,26.09
2023-05-02T10:58:39.715Z,26.07
2023-05-02T10:59:39.124Z,26.09
2023-05-02T11:00:39.166Z,26.11
2023-05-02T11:01:39.115Z,26.11
2023-05-02T11:02:39.209Z,26.15
2023-05-02T11:03:39.179Z,26.14
2023-05-02T11:04:39.203Z,26.15
2023-05-02T11:05:39.160Z,26.18
2023-05-02T11:06:39.171Z,26.18
2023-05-02T11:07:39.146Z,26.19
2023-05-02T11:08:39.177Z,26.19
2023-05-02T11:09:39.215Z,26.19
2023-05-02T11:10:39.219Z,26.21
2023-05-02T11:11:39.256Z,26.15
2023-05-02T11:12:39.257Z,26.17
2023-05-02T11:13:39.260Z,26.22
2023-05-02T11:14:39.309Z,26.27
2023-05-02T11:15:39.251Z,26.29
2023-05-02T11:16:39.298Z,26.28
2023-05-02T11:17:39.381Z,26.31
2023-05-02T11:18:39.356Z,26.28
2023-05-02T11:19:39.244Z,26.29
2023-05-02T11:20:39.271Z,26.25
2023-05-02T11:21:39.363Z,26.25
2023-05-02T11:22:39.357Z,26.22
2023-05-02T11:23:39.288Z,26.24
2023-05-02T11:24:39.291Z,26.19
2023-05-02T11:25:39.299Z,26.17
2023-05-02T11:26:39.279Z,26.15
2023-05-02T11:27:39.351Z,26.15
2023-05-02T11:28:39.321Z,26.12
2023-05-02T11:29:39.346Z,26.11
2023-05-02T11:30:39.412Z,26.09
2023-05-02T11:31:39.434Z,26.07
2023-05-02T11:32:39.449Z,26.07
2023-05-02T11:33:39.417Z,26.05
2023-05-02T11:34:39.476Z,26.01
2023-05-02T11:35:39.593Z,26.01
2023-05-02T11:36:39.493Z,26.01
2023-05-02T11:37:39.505Z,26.02
2023-05-02T11:38:39.549Z,25.99
2023-05-02T11:39:39.569Z,25.98
2023-05-02T11:40:39.671Z,25.97
2023-05-02T11:41:39.618Z,25.99
2023-05-02T11:42:39.679Z,25.92
2023-05-02T11:43:39.694Z,25.92
2023-05-02T11:44:39.721Z,25.92
2023-05-02T11:45:40.081Z,25.94
2023-05-02T11:46:39.970Z,25.91
2023-05-02T11:47:39.862Z,25.92
2023-05-02T11:48:39.993Z,25.92
2023-05-02T11:49:39.937Z,25.89
2023-05-02T11:50:41.822Z,25.91
2023-05-02T11:51:39.969Z,25.91
2023-05-02T11:52:39.913Z,25.91
2023-05-02T11:53:39.913Z,25.91
2023-05-02T11:54:39.917Z,25.89
2023-05-02T11:55:39.922Z,25.91
2023-05-02T11:56:39.876Z,25.89
2023-05-02T11:57:39.877Z,25.89
2023-05-02T11:58:40.504Z,25.88
2023-05-02T11:59:39.912Z,25.89
2023-05-02T12:00:40.025Z,25.85
2023-05-02T12:01:39.901Z,25.89
2023-05-02T12:02:39.965Z,25.89
2023-05-02T12:03:40.275Z,25.87
2023-05-02T12:04:39.854Z,25.88
2023-05-02T12:05:39.865Z,25.89
2023-05-02T12:06:39.962Z,25.88
2023-05-02T12:07:39.799Z,25.87
2023-05-02T12:08:40.088Z,25.88
2023-05-02T12:09:39.822Z,25.88
2023-05-02T12:10:39.806Z,25.85
2023-05-02T12:11:39.836Z,25.89
2023-05-02T12:12:39.765Z,25.88
2023-05-02T12:13:39.879Z,25.87
2023-05-02T12:14:39.761Z,25.87
2023-05-02T12:15:39.746Z,25.88
2023-05-02T12:16:39.904Z,25.87
2023-05-02T12:17:39.846Z,25.88
2023-05-02T12:18:40.008Z,25.87
2023-05-02T12:19:39.716Z,25.87
2023-05-02T12:20:40.565Z,25.85
2023-05-02T12:21:39.705Z,25.85
2023-05-02T12:22:39.701Z,25.87
2023-05-02T12:23:39.705Z,25.88
2023-05-02T12:24:39.677Z,25.87
2023-05-02T12:25:40.051Z,25.87
2023-05-02T12:26:39.709Z,25.85
2023-05-02T12:27:39.673Z,25.84
2023-05-02T12:28:39.738Z,25.84
2023-05-02T12:29:39.751Z,25.85
2023-05-02T12:30:40.558Z,25.84
2023-05-02T12:31:39.918Z,25.83
2023-05-02T12:32:39.951Z,25.83
2023-05-02T12:33:39.929Z,25.80
2023-05-02T12:34:39.966Z,25.81
2023-05-02T12:35:40.036Z,25.83
2023-05-02T12:36:40.074Z,25.80
2023-05-02T12:37:40.106Z,25.80
2023-05-02T12:38:40.516Z,25.78
2023-05-02T12:39:40.181Z,25.77
2023-05-02T12:40:40.268Z,25.77
2023-05-02T12:41:40.304Z,25.78
2023-05-02T12:42:40.328Z,25.74
2023-05-02T12:43:40.443Z,25.78
2023-05-02T12:44:40.429Z,25.77
2023-05-02T12:45:40.526Z,25.75
2023-05-02T12:46:40.569Z,25.75
2023-05-02T12:47:40.597Z,25.74
2023-05-02T12:48:40.620Z,25.74
2023-05-02T12:49:40.748Z,25.73
2023-05-02T12:50:40.773Z,25.73
2023-05-02T12:51:40.775Z,25.74
2023-05-02T12:52:40.843Z,25.71
2023-05-02T12:53:40.921Z,25.71